Portada
METAR-TAF:

METAR-TAF

Aeroports :

Bahawalpur, Pakistan

latitud: 29-20-53N, longitud: 71-43-04E, altitud: 119 m

METAR: manca

Hora: 05:20 (00:20 UTC)

Pronòstic

L'informe es va fer fa 2 hores i 35 minuts, a les 21:45 UTC
Pronòstic vàlid del 22 a les 00 UTC al 22 a les 18 UTC
Vent 5 kt del Nord-Est
Visibilitat: 3000 m
Escasses núvols a una alçada de 4000 ft
Núvols disperses a una alçada de 10000 ft
fum
Probabilitat 30% :
Temporalment
l' 22 a les 05 UTC al 22 a les 09 UTC
Vent 25 kt del Nord
Visibilitat: 2000 m
Escasses núvols a una alçada de 3000 ft, Cumulonimbus.
Núvols disperses a una alçada de 4000 ft
Cel ennuvolat a una alçada de 10000 ft
tempesta, pluja

TAF: OPBW 212145Z 2200/2218 05005KT 3000 FU FEW040 SCT100 TN13/2201Z TX22/2210Z PROB30 TEMPO 2205/2209 36025KT 2000 TSRA FEW030CB SCT040 BKN100

Observacions i pronòstics meteorològics de més de 4000 aeroports (METAR i TAF).

Les estacions disponibles són els punts grocs i vermells al mapa.

Posi el ratolí al punt desitjat per veure el nom de l'estació.

Feu clic per veure les observacions i els pronòstics meteorològics.

Per canviar el mapa: feu clic els botons verds amb una creu de color negre per apropar; al botó verd amb un guió per allunyar la imatge; o en les fletxes verdes per a mapes adjacents.


METAR-TAF: